Time;durP1;ratioP1;P1;durP2;ratioP2;P2;SDS_P1;SDS_P2;PMS_P1;PMS_P2;Temp;Humidity;BMP_temperature;BMP_pressure;BME280_temperature;BME280_humidity;BME280_pressure;Samples;Min_cycle;Max_cycle;Signal;HPM_P1;HPM_P2
2023/06/21 00:02:21;;;;;;;2.72;2.30;;;;;;;;;;5019114;28;20040;-78
2023/06/21 00:04:46;;;;;;;3.25;2.47;;;;;;;;;;5035571;28;20029;-77
2023/06/21 00:07:11;;;;;;;2.25;2.05;;;;;;;;;;5035415;28;20032;-78
2023/06/21 00:09:37;;;;;;;3.22;2.42;;;;;;;;;;5053233;28;20029;-76
2023/06/21 00:12:02;;;;;;;2.25;2.05;;;;;;;;;;5035334;28;20033;-76
2023/06/21 00:14:28;;;;;;;2.50;2.30;;;;;;;;;;5035548;28;20052;-76
2023/06/21 00:16:53;;;;;;;2.80;2.15;;;;;;;;;;5053517;28;20036;-76
2023/06/21 00:19:18;;;;;;;2.40;2.20;;;;;;;;;;5035707;28;20494;-76
2023/06/21 00:21:44;;;;;;;3.00;2.63;;;;;;;;;;5035660;28;20025;-79
2023/06/21 00:24:09;;;;;;;2.67;2.42;;;;;;;;;;5053292;28;20037;-76
2023/06/21 00:26:35;;;;;;;2.85;2.22;;;;;;;;;;5034830;28;20031;-77
2023/06/21 00:29:00;;;;;;;3.55;2.40;;;;;;;;;;5018765;28;20036;-77
2023/06/21 00:31:26;;;;;;;4.78;2.55;;;;;;;;;;5053480;28;20033;-76
2023/06/21 00:33:51;;;;;;;2.50;2.30;;;;;;;;;;5035166;28;20033;-77
2023/06/21 00:36:17;;;;;;;3.72;2.58;;;;;;;;;;5035156;28;20024;-77
2023/06/21 00:38:42;;;;;;;3.70;2.58;;;;;;;;;;5052898;28;20037;-77
2023/06/21 00:41:08;;;;;;;2.47;2.28;;;;;;;;;;5035133;28;20033;-76
2023/06/21 00:43:33;;;;;;;2.58;2.38;;;;;;;;;;5035195;28;20067;-76
2023/06/21 00:45:59;;;;;;;3.47;2.45;;;;;;;;;;5018508;28;20086;-76
2023/06/21 00:48:28;;;;;;;2.72;2.40;;;;;;;;;;5035005;28;20033;-76
2023/06/21 00:50:55;;;;;;;2.85;2.47;;;;;;;;;;5052574;28;20399;-76
2023/06/21 00:53:21;;;;;;;2.67;2.25;;;;;;;;;;5046131;28;20037;-76
2023/06/21 00:55:46;;;;;;;2.75;2.33;;;;;;;;;;5051544;28;20033;-75
2023/06/21 00:58:12;;;;;;;3.30;2.60;;;;;;;;;;5052772;28;20044;-75
2023/06/21 01:00:37;;;;;;;2.85;2.60;;;;;;;;;;5051337;28;20431;-76
2023/06/21 01:03:03;;;;;;;2.92;2.63;;;;;;;;;;5052971;28;20032;-76
2023/06/21 01:05:33;;;;;;;3.50;2.70;;;;;;;;;;5052716;28;20033;-76
2023/06/21 01:08:29;;;;;;;2.83;2.55;;;;;;;;;;5051865;28;20124;-76
2023/06/21 01:11:02;;;;;;;2.75;2.42;;;;;;;;;;5054542;28;20025;-76
2023/06/21 01:13:45;;;;;;;5.53;2.90;;;;;;;;;;5073065;28;20391;-76
2023/06/21 01:16:14;;;;;;;2.50;2.30;;;;;;;;;;5073048;28;20024;-76
2023/06/21 01:18:40;;;;;;;2.92;2.58;;;;;;;;;;5055521;28;20032;-76
2023/06/21 01:21:07;;;;;;;2.90;2.60;;;;;;;;;;5054919;28;20501;-76
2023/06/21 01:24:01;;;;;;;2.53;2.33;;;;;;;;;;5055025;28;20048;-76
2023/06/21 01:26:45;;;;;;;;;;;;;;;;;;5055146;28;20071;-77
2023/06/21 01:29:13;;;;;;;3.08;2.50;;;;;;;;;;5072842;28;20287;-77
2023/06/21 01:31:40;;;;;;;2.65;2.42;;;;;;;;;;5054546;28;20025;-77
2023/06/21 01:34:08;;;;;;;3.92;2.60;;;;;;;;;;5055013;28;20081;-76
2023/06/21 01:36:34;;;;;;;2.70;2.50;;;;;;;;;;5055009;28;20032;-76
2023/06/21 01:39:00;;;;;;;3.00;2.67;;;;;;;;;;5041400;28;20047;-76
2023/06/21 01:41:26;;;;;;;2.85;2.50;;;;;;;;;;5076041;28;20039;-76
2023/06/21 01:43:52;;;;;;;2.90;2.70;;;;;;;;;;5058231;28;20043;-76
2023/06/21 01:46:19;;;;;;;2.92;2.72;;;;;;;;;;5058369;28;20020;-77
2023/06/21 01:48:45;;;;;;;3.72;3.05;;;;;;;;;;5058376;28;20474;-76
2023/06/21 01:51:11;;;;;;;2.88;2.42;;;;;;;;;;5073208;28;20096;-76
2023/06/21 01:53:37;;;;;;;3.00;2.70;;;;;;;;;;5038284;28;20033;-76
2023/06/21 01:56:08;;;;;;;3.67;3.10;;;;;;;;;;5038267;28;20036;-76
2023/06/21 01:58:34;;;;;;;3.33;3.00;;;;;;;;;;5055734;28;20025;-76
2023/06/21 02:00:59;;;;;;;3.17;2.90;;;;;;;;;;5021405;28;20035;-75
2023/06/21 02:03:25;;;;;;;3.30;3.00;;;;;;;;;;5037993;28;20479;-76
2023/06/21 02:05:51;;;;;;;3.40;3.10;;;;;;;;;;5037910;28;20033;-76
2023/06/21 02:08:17;;;;;;;4.07;3.03;;;;;;;;;;5038338;28;20372;-75
2023/06/21 02:10:44;;;;;;;3.20;2.90;;;;;;;;;;5021028;28;20395;-76
2023/06/21 02:13:10;;;;;;;3.10;2.85;;;;;;;;;;5021091;28;20033;-76
2023/06/21 02:15:38;;;;;;;3.28;2.97;;;;;;;;;;5055445;28;20029;-76
2023/06/21 02:18:03;;;;;;;3.38;3.08;;;;;;;;;;5038122;28;20064;-76
2023/06/21 02:20:29;;;;;;;2.92;2.72;;;;;;;;;;5037460;28;20495;-76
2023/06/21 02:22:54;;;;;;;3.60;3.17;;;;;;;;;;5037578;28;20025;-76
2023/06/21 02:25:21;;;;;;;3.58;3.08;;;;;;;;;;5037707;28;20025;-76
2023/06/21 02:27:47;;;;;;;3.10;2.80;;;;;;;;;;5055309;28;20040;-76
2023/06/21 02:30:12;;;;;;;4.57;3.17;;;;;;;;;;5055449;28;20020;-76
2023/06/21 02:32:38;;;;;;;3.13;2.83;;;;;;;;;;5037141;28;20471;-76
2023/06/21 02:35:04;;;;;;;3.90;3.30;;;;;;;;;;5037240;28;20032;-76
2023/06/21 02:37:29;;;;;;;3.58;3.25;;;;;;;;;;5055222;28;20396;-76
2023/06/21 02:39:55;;;;;;;3.80;3.40;;;;;;;;;;5037403;28;20029;-76
2023/06/21 02:42:21;;;;;;;4.10;3.40;;;;;;;;;;5054840;28;20033;-76
2023/06/21 02:44:46;;;;;;;3.90;3.50;;;;;;;;;;5054909;28;20040;-76
2023/06/21 02:47:11;;;;;;;4.15;3.55;;;;;;;;;;5055006;28;20123;-76
2023/06/21 02:49:37;;;;;;;4.63;3.60;;;;;;;;;;5036361;28;20033;-76
2023/06/21 02:52:04;;;;;;;3.88;3.58;;;;;;;;;;5036900;28;20131;-76
2023/06/21 02:54:29;;;;;;;3.92;3.63;;;;;;;;;;5054998;28;20025;-76
2023/06/21 02:56:55;;;;;;;4.22;3.83;;;;;;;;;;5054642;28;20540;-76
2023/06/21 02:59:20;;;;;;;4.38;3.70;;;;;;;;;;5036624;28;20056;-76
2023/06/21 03:01:48;;;;;;;7.00;4.10;;;;;;;;;;5055085;28;20028;-76
2023/06/21 03:04:18;;;;;;;4.70;4.28;;;;;;;;;;5054387;28;20032;-76
2023/06/21 03:06:44;;;;;;;4.20;3.80;;;;;;;;;;5054646;28;20108;-76
2023/06/21 03:09:09;;;;;;;4.40;4.00;;;;;;;;;;5054859;28;20100;-76
2023/06/21 03:11:35;;;;;;;5.15;4.65;;;;;;;;;;5019732;28;20407;-76
2023/06/21 03:14:00;;;;;;;5.10;4.60;;;;;;;;;;5054488;28;20033;-76
2023/06/21 03:16:26;;;;;;;4.80;4.40;;;;;;;;;;5036206;28;20452;-76
2023/06/21 03:18:51;;;;;;;4.97;4.50;;;;;;;;;;5036618;28;20033;-76
2023/06/21 03:21:16;;;;;;;5.15;4.65;;;;;;;;;;5054197;28;20116;-76
2023/06/21 03:23:43;;;;;;;5.05;4.55;;;;;;;;;;5053708;28;20464;-76
2023/06/21 03:26:08;;;;;;;5.40;4.90;;;;;;;;;;5019352;28;20120;-76
2023/06/21 03:28:33;;;;;;;5.13;4.68;;;;;;;;;;5053713;28;20037;-76
2023/06/21 03:30:59;;;;;;;5.10;4.60;;;;;;;;;;5035744;28;20502;-75
2023/06/21 03:33:24;;;;;;;6.38;4.95;;;;;;;;;;5053855;28;20029;-76
2023/06/21 03:35:50;;;;;;;5.40;4.90;;;;;;;;;;5053897;28;20059;-76
2023/06/21 03:38:17;;;;;;;5.47;4.97;;;;;;;;;;5036444;28;20029;-76
2023/06/21 03:40:43;;;;;;;5.70;4.70;;;;;;;;;;5035912;28;20482;-76
2023/06/21 03:43:08;;;;;;;5.25;4.75;;;;;;;;;;5036069;28;20116;-75
2023/06/21 03:45:34;;;;;;;5.40;4.90;;;;;;;;;;5053689;28;20123;-76
2023/06/21 03:48:03;;;;;;;5.43;4.93;;;;;;;;;;5035762;28;20116;-76
2023/06/21 03:50:29;;;;;;;5.93;5.32;;;;;;;;;;5036770;28;20052;-76
2023/06/21 03:52:54;;;;;;;6.30;5.32;;;;;;;;;;5035501;28;20499;-76
2023/06/21 03:55:19;;;;;;;5.13;4.63;;;;;;;;;;5035582;28;20029;-76
2023/06/21 03:57:45;;;;;;;6.38;5.63;;;;;;;;;;5035807;28;20032;-75
2023/06/21 04:00:11;;;;;;;5.47;4.78;;;;;;;;;;5035468;28;20036;-76
2023/06/21 04:02:36;;;;;;;5.85;5.25;;;;;;;;;;5053864;28;20483;-76
2023/06/21 04:05:02;;;;;;;5.47;4.95;;;;;;;;;;5053608;28;20029;-78
2023/06/21 04:07:27;;;;;;;6.00;5.40;;;;;;;;;;5035843;28;20037;-76
2023/06/21 04:09:53;;;;;;;6.32;5.40;;;;;;;;;;5053642;28;20028;-78
2023/06/21 04:12:18;;;;;;;5.90;5.40;;;;;;;;;;5018973;28;20056;-78
2023/06/21 04:14:44;;;;;;;5.50;5.00;;;;;;;;;;5035601;28;20115;-75
2023/06/21 04:17:09;;;;;;;6.93;5.40;;;;;;;;;;5035765;28;20052;-76
2023/06/21 04:19:34;;;;;;;5.93;5.32;;;;;;;;;;5019894;28;20407;-79
2023/06/21 04:22:00;;;;;;;5.65;5.05;;;;;;;;;;5019076;28;20029;-79
2023/06/21 04:24:25;;;;;;;6.40;5.80;;;;;;;;;;5018754;28;20048;-75
2023/06/21 04:26:51;;;;;;;6.15;5.55;;;;;;;;;;5053775;28;20094;-74
2023/06/21 04:29:20;;;;;;;7.07;5.60;;;;;;;;;;5053271;28;20086;-77
2023/06/21 04:31:45;;;;;;;7.85;6.05;;;;;;;;;;5035390;28;20041;-75
2023/06/21 04:34:11;;;;;;;8.43;5.75;;;;;;;;;;5035259;28;20124;-76
2023/06/21 04:36:37;;;;;;;6.60;5.72;;;;;;;;;;5053178;28;20029;-77
2023/06/21 04:39:02;;;;;;;7.28;5.53;;;;;;;;;;5035662;28;20029;-74
2023/06/21 04:41:28;;;;;;;6.57;5.95;;;;;;;;;;5035481;28;20028;-76
2023/06/21 04:43:53;;;;;;;8.98;6.35;;;;;;;;;;5053309;28;20033;-79
2023/06/21 04:46:21;;;;;;;8.82;6.07;;;;;;;;;;5035758;28;20033;-75
2023/06/21 04:48:47;;;;;;;7.25;5.65;;;;;;;;;;5053055;28;20119;-78
2023/06/21 04:51:15;;;;;;;7.15;6.05;;;;;;;;;;5053412;28;20049;-76
2023/06/21 04:53:44;;;;;;;7.53;5.78;;;;;;;;;;5019218;28;20025;-76
2023/06/21 04:56:12;;;;;;;6.55;5.70;;;;;;;;;;5052930;28;20488;-77
2023/06/21 04:58:39;;;;;;;7.95;5.90;;;;;;;;;;5035836;28;20076;-76
2023/06/21 05:01:04;;;;;;;8.95;6.10;;;;;;;;;;5035769;28;20092;-75
2023/06/21 05:03:32;;;;;;;10.88;6.20;;;;;;;;;;5035347;28;20079;-77
2023/06/21 05:06:00;;;;;;;10.73;6.15;;;;;;;;;;5035585;28;20036;-76
2023/06/21 05:08:26;;;;;;;12.07;6.75;;;;;;;;;;5053114;28;20033;-79
2023/06/21 05:10:52;;;;;;;12.25;7.13;;;;;;;;;;5035385;28;20021;-78
2023/06/21 05:13:17;;;;;;;13.48;7.47;;;;;;;;;;5038278;28;20032;-77
2023/06/21 05:15:43;;;;;;;12.60;7.25;;;;;;;;;;5023732;28;20037;-78
2023/06/21 05:18:08;;;;;;;13.02;6.93;;;;;;;;;;5040055;28;20044;-78
2023/06/21 05:20:34;;;;;;;11.13;7.32;;;;;;;;;;5039036;28;20082;-79
2023/06/21 05:22:59;;;;;;;11.52;6.72;;;;;;;;;;5022434;28;20025;-80
2023/06/21 05:25:25;;;;;;;10.90;6.20;;;;;;;;;;5040970;28;20029;-80
2023/06/21 05:27:50;;;;;;;10.45;6.38;;;;;;;;;;5023174;28;20087;-79
2023/06/21 05:30:16;;;;;;;10.27;6.10;;;;;;;;;;5038652;28;20057;-79
2023/06/21 05:32:41;;;;;;;8.57;5.78;;;;;;;;;;5038423;28;20064;-79
2023/06/21 05:35:07;;;;;;;10.30;5.85;;;;;;;;;;5038405;28;20029;-79
2023/06/21 05:37:33;;;;;;;9.10;6.45;;;;;;;;;;5056970;28;20033;-77
2023/06/21 05:40:00;;;;;;;8.25;6.03;;;;;;;;;;5022820;28;20033;-79
2023/06/21 05:42:27;;;;;;;7.97;5.88;;;;;;;;;;5056001;28;20044;-79
2023/06/21 05:44:52;;;;;;;7.47;5.50;;;;;;;;;;5022462;28;20033;-79
2023/06/21 05:47:18;;;;;;;7.72;5.95;;;;;;;;;;5021889;28;20052;-78
2023/06/21 05:49:43;;;;;;;7.03;5.38;;;;;;;;;;5038813;28;20391;-78
2023/06/21 05:52:08;;;;;;;7.65;5.20;;;;;;;;;;5056275;28;20496;-77
2023/06/21 05:54:34;;;;;;;6.15;5.47;;;;;;;;;;5038821;28;20036;-78
2023/06/21 05:56:59;;;;;;;7.18;5.15;;;;;;;;;;5038588;28;20041;-78
2023/06/21 05:59:25;;;;;;;6.75;4.80;;;;;;;;;;5038633;28;20094;-78
2023/06/21 06:01:50;;;;;;;5.25;4.68;;;;;;;;;;5056146;28;20021;-79
2023/06/21 06:04:15;;;;;;;7.05;5.43;;;;;;;;;;5037782;28;20039;-79
2023/06/21 06:06:41;;;;;;;7.28;4.95;;;;;;;;;;5055481;28;20032;-79
2023/06/21 06:09:08;;;;;;;5.60;5.00;;;;;;;;;;5037745;28;20533;-78
2023/06/21 06:11:33;;;;;;;5.30;4.78;;;;;;;;;;5037667;28;20029;-78
2023/06/21 06:13:58;;;;;;;5.65;4.93;;;;;;;;;;5037742;28;20025;-78
2023/06/21 06:16:24;;;;;;;5.05;4.32;;;;;;;;;;5055464;28;20021;-78
2023/06/21 06:18:49;;;;;;;6.38;4.88;;;;;;;;;;5037764;28;20436;-78
2023/06/21 06:21:14;;;;;;;6.18;4.97;;;;;;;;;;5021467;28;20025;-77
2023/06/21 06:23:40;;;;;;;5.85;4.43;;;;;;;;;;5054283;28;20495;-77
2023/06/21 06:26:06;;;;;;;5.90;4.72;;;;;;;;;;5039823;28;20476;-77
2023/06/21 06:28:31;;;;;;;5.78;4.90;;;;;;;;;;5041090;28;20025;-77
2023/06/21 06:30:57;;;;;;;6.22;4.70;;;;;;;;;;5037580;28;20036;-77
2023/06/21 06:33:22;;;;;;;5.38;4.45;;;;;;;;;;5037364;28;20459;-77
2023/06/21 06:35:47;;;;;;;5.53;4.28;;;;;;;;;;5037111;28;20080;-77
2023/06/21 06:38:13;;;;;;;6.95;4.72;;;;;;;;;;5055116;28;20495;-77
2023/06/21 06:40:38;;;;;;;5.07;4.38;;;;;;;;;;5036882;28;20403;-77
2023/06/21 06:43:06;;;;;;;5.45;4.18;;;;;;;;;;5036935;28;20021;-75
2023/06/21 06:45:31;;;;;;;4.53;4.00;;;;;;;;;;5054740;28;20033;-76
2023/06/21 06:47:57;;;;;;;5.45;4.45;;;;;;;;;;5036706;28;20028;-77
2023/06/21 06:50:22;;;;;;;5.75;4.38;;;;;;;;;;5055395;28;20086;-76
2023/06/21 06:52:48;;;;;;;6.30;4.32;;;;;;;;;;5054516;28;20053;-77
2023/06/21 06:55:13;;;;;;;5.90;4.55;;;;;;;;;;5054777;28;20036;-76
2023/06/21 06:57:39;;;;;;;5.13;4.13;;;;;;;;;;5036953;28;20495;-76
2023/06/21 07:00:09;;;;;;;5.82;4.30;;;;;;;;;;5054761;28;20052;-77
2023/06/21 07:02:35;;;;;;;5.60;4.80;;;;;;;;;;5054856;28;20017;-77
2023/06/21 07:05:01;;;;;;;5.32;4.47;;;;;;;;;;5020509;28;20037;-77
2023/06/21 07:07:26;;;;;;;4.75;4.10;;;;;;;;;;5036708;28;20036;-76
2023/06/21 07:09:51;;;;;;;5.22;4.20;;;;;;;;;;5036583;28;20111;-77
2023/06/21 07:12:17;;;;;;;4.57;3.88;;;;;;;;;;5054346;28;20426;-77
2023/06/21 07:14:42;;;;;;;5.43;4.13;;;;;;;;;;5036709;28;20037;-77
2023/06/21 07:17:08;;;;;;;4.18;3.78;;;;;;;;;;5036557;28;20485;-77
2023/06/21 07:19:33;;;;;;;4.25;3.75;;;;;;;;;;5036560;28;20033;-76
2023/06/21 07:21:58;;;;;;;5.10;4.07;;;;;;;;;;5054328;28;20449;-76
2023/06/21 07:24:24;;;;;;;5.07;3.60;;;;;;;;;;5036689;28;20047;-77
2023/06/21 07:26:49;;;;;;;5.32;4.13;;;;;;;;;;5054126;28;20071;-76
2023/06/21 07:29:14;;;;;;;4.72;4.18;;;;;;;;;;5054230;28;20029;-77
2023/06/21 07:31:40;;;;;;;6.63;3.88;;;;;;;;;;5054580;28;20032;-77
2023/06/21 07:34:07;;;;;;;4.57;3.72;;;;;;;;;;5036029;28;20037;-76
2023/06/21 07:36:33;;;;;;;5.57;4.03;;;;;;;;;;5035786;28;20082;-76
2023/06/21 07:38:58;;;;;;;4.97;3.60;;;;;;;;;;5062412;28;20031;-78
2023/06/21 07:41:24;;;;;;;5.32;4.00;;;;;;;;;;5093607;28;20474;-77
2023/06/21 07:43:49;;;;;;;8.45;3.70;;;;;;;;;;5093944;28;20077;-77
2023/06/21 07:46:15;;;;;;;6.38;3.70;;;;;;;;;;5094277;28;20427;-77
2023/06/21 07:48:41;;;;;;;4.60;3.78;;;;;;;;;;5059463;28;20122;-78
2023/06/21 07:51:06;;;;;;;3.90;3.35;;;;;;;;;;5075714;28;20173;-78
2023/06/21 07:53:32;;;;;;;10.55;4.13;;;;;;;;;;5093723;28;20483;-78
2023/06/21 07:56:00;;;;;;;6.05;3.47;;;;;;;;;;5093904;28;20024;-78
2023/06/21 07:58:25;;;;;;;4.88;3.38;;;;;;;;;;5076326;28;20424;-78
2023/06/21 08:00:51;;;;;;;7.68;3.20;;;;;;;;;;5093727;28;20032;-78
2023/06/21 08:03:16;;;;;;;4.38;3.55;;;;;;;;;;5093624;28;20028;-78
2023/06/21 08:05:41;;;;;;;5.25;3.40;;;;;;;;;;5093898;28;20032;-78
2023/06/21 08:08:07;;;;;;;4.72;3.50;;;;;;;;;;5094048;28;20482;-78
2023/06/21 08:10:33;;;;;;;3.67;3.38;;;;;;;;;;5075327;28;20394;-78
2023/06/21 08:12:59;;;;;;;4.20;3.20;;;;;;;;;;5093316;28;20024;-78
2023/06/21 08:15:25;;;;;;;4.45;3.55;;;;;;;;;;5075606;28;20390;-78
2023/06/21 08:17:51;;;;;;;4.00;3.40;;;;;;;;;;5075402;28;20043;-78
2023/06/21 08:20:17;;;;;;;4.70;3.35;;;;;;;;;;5059135;28;20058;-78
2023/06/21 08:22:42;;;;;;;5.13;3.30;;;;;;;;;;5058342;28;20044;-78
2023/06/21 08:25:08;;;;;;;5.35;3.13;;;;;;;;;;5093308;28;20039;-78
2023/06/21 08:27:33;;;;;;;3.42;3.13;;;;;;;;;;5093211;28;20024;-78
2023/06/21 08:29:59;;;;;;;3.50;2.78;;;;;;;;;;5074975;28;20063;-78
2023/06/21 08:32:24;;;;;;;4.30;3.47;;;;;;;;;;5058267;28;20028;-78
2023/06/21 08:34:52;;;;;;;4.03;2.75;;;;;;;;;;5075541;28;20490;-77
2023/06/21 08:37:22;;;;;;;3.58;3.03;;;;;;;;;;5058664;28;20035;-77
2023/06/21 08:39:52;;;;;;;4.82;3.00;;;;;;;;;;5059453;28;20036;-77
2023/06/21 08:42:21;;;;;;;3.30;3.00;;;;;;;;;;5093040;28;20024;-77
2023/06/21 08:44:47;;;;;;;4.97;3.45;;;;;;;;;;5075630;28;20031;-77
2023/06/21 08:47:13;;;;;;;7.32;3.60;;;;;;;;;;5052608;28;20467;-77
2023/06/21 08:49:40;;;;;;;3.78;3.25;;;;;;;;;;5059195;28;20088;-77
2023/06/21 08:52:09;;;;;;;4.68;3.50;;;;;;;;;;5076765;28;20491;-77
2023/06/21 08:54:35;;;;;;;6.68;3.00;;;;;;;;;;5059070;28;20036;-77
2023/06/21 08:57:08;;;;;;;3.75;3.30;;;;;;;;;;5077445;28;20028;-77
2023/06/21 08:59:54;;;;;;;3.72;2.83;;;;;;;;;;5077558;28;20036;-77
2023/06/21 09:02:43;;;;;;;3.83;2.83;;;;;;;;;;5059132;28;20463;-77
2023/06/21 09:05:25;;;;;;;3.03;2.72;;;;;;;;;;5060089;28;20024;-76
2023/06/21 09:07:51;;;;;;;4.40;3.05;;;;;;;;;;5058908;28;20021;-77
2023/06/21 09:10:20;;;;;;;5.03;2.67;;;;;;;;;;5076914;28;20039;-76
2023/06/21 09:12:47;;;;;;;4.22;2.40;;;;;;;;;;5077069;28;20067;-77
2023/06/21 09:15:13;;;;;;;3.95;2.90;;;;;;;;;;5059608;28;20029;-76
2023/06/21 09:17:39;;;;;;;5.13;2.70;;;;;;;;;;5042219;28;20502;-77
2023/06/21 09:20:05;;;;;;;3.80;2.90;;;;;;;;;;5058862;28;20032;-77
2023/06/21 09:22:31;;;;;;;3.65;2.47;;;;;;;;;;5058518;28;20075;-77
2023/06/21 09:24:56;;;;;;;3.72;2.50;;;;;;;;;;5060394;28;20085;-77
2023/06/21 09:27:22;;;;;;;5.13;3.13;;;;;;;;;;5042411;28;20036;-76
2023/06/21 09:29:47;;;;;;;3.95;2.55;;;;;;;;;;5058878;28;20031;-77
2023/06/21 09:32:13;;;;;;;6.10;2.90;;;;;;;;;;5058926;28;20029;-77
2023/06/21 09:34:38;;;;;;;3.53;2.30;;;;;;;;;;5059168;28;20460;-77
2023/06/21 09:37:04;;;;;;;2.40;2.20;;;;;;;;;;5059094;28;20128;-77
2023/06/21 09:39:29;;;;;;;5.60;2.40;;;;;;;;;;5058719;28;20036;-77
2023/06/21 09:41:55;;;;;;;5.93;2.70;;;;;;;;;;5058219;28;20044;-76
2023/06/21 09:44:21;;;;;;;2.80;2.45;;;;;;;;;;5043857;28;20041;-77
2023/06/21 09:46:47;;;;;;;4.82;2.58;;;;;;;;;;5060871;28;20036;-77
2023/06/21 09:49:13;;;;;;;5.78;2.53;;;;;;;;;;5041921;28;20112;-77
2023/06/21 09:51:43;;;;;;;3.95;2.75;;;;;;;;;;5058014;28;20127;-76
2023/06/21 09:54:09;;;;;;;4.45;2.50;;;;;;;;;;5058171;28;20020;-76
2023/06/21 09:56:37;;;;;;;6.85;2.85;;;;;;;;;;5041865;28;20028;-77
2023/06/21 09:59:03;;;;;;;3.72;2.30;;;;;;;;;;5058381;28;20090;-76
2023/06/21 10:01:40;;;;;;;2.70;2.50;;;;;;;;;;5058318;28;20028;-77
2023/06/21 10:04:14;;;;;;;3.33;2.85;;;;;;;;;;5057961;28;20025;-77
2023/06/21 10:06:50;;;;;;;2.67;2.47;;;;;;;;;;5040389;28;20039;-76
2023/06/21 10:09:17;;;;;;;3.97;2.67;;;;;;;;;;5057229;28;20033;-77
2023/06/21 10:11:45;;;;;;;4.45;3.03;;;;;;;;;;5057229;28;20047;-77
2023/06/21 10:14:18;;;;;;;2.97;2.65;;;;;;;;;;5041684;28;20542;-76
2023/06/21 10:16:45;;;;;;;4.88;2.83;;;;;;;;;;5056851;28;20032;-78
2023/06/21 10:19:11;;;;;;;2.70;2.50;;;;;;;;;;5056963;28;20483;-78
2023/06/21 10:21:37;;;;;;;2.58;2.38;;;;;;;;;;5039901;28;20499;-78
2023/06/21 10:24:05;;;;;;;3.35;2.72;;;;;;;;;;5074698;28;20617;-78
2023/06/21 10:26:31;;;;;;;2.88;2.42;;;;;;;;;;5056696;28;20044;-80
2023/06/21 10:28:57;;;;;;;2.70;2.50;;;;;;;;;;5056834;28;20039;-79
2023/06/21 10:31:24;;;;;;;2.50;2.30;;;;;;;;;;5056787;28;20017;-78
2023/06/21 10:33:50;;;;;;;2.70;2.50;;;;;;;;;;5040151;28;20041;-78
2023/06/21 10:36:18;;;;;;;3.38;2.30;;;;;;;;;;5039850;28;20033;-78
2023/06/21 10:38:46;;;;;;;2.83;2.03;;;;;;;;;;5040335;28;20490;-78
2023/06/21 10:41:14;;;;;;;2.47;2.28;;;;;;;;;;5055358;28;20067;-78
2023/06/21 10:43:40;;;;;;;2.38;2.08;;;;;;;;;;5056866;28;20107;-78
2023/06/21 10:46:06;;;;;;;2.20;2.00;;;;;;;;;;5039771;28;20033;-77
2023/06/21 10:48:33;;;;;;;2.67;2.10;;;;;;;;;;5039923;28;20494;-77
2023/06/21 10:51:01;;;;;;;2.03;1.90;;;;;;;;;;5074312;28;20032;-78
2023/06/21 10:53:29;;;;;;;2.05;1.90;;;;;;;;;;5072195;28;20039;-77
2023/06/21 10:55:55;;;;;;;1.63;1.50;;;;;;;;;;5056029;28;20025;-78
2023/06/21 10:58:22;;;;;;;1.80;1.70;;;;;;;;;;5073616;28;20078;-77
2023/06/21 11:00:50;;;;;;;2.08;1.90;;;;;;;;;;5039451;28;20029;-77
2023/06/21 11:03:16;;;;;;;1.73;1.45;;;;;;;;;;5056323;28;20027;-77
2023/06/21 11:05:42;;;;;;;1.60;1.50;;;;;;;;;;5040055;28;20024;-77
2023/06/21 11:08:09;;;;;;;1.88;1.65;;;;;;;;;;5056297;28;20036;-77
2023/06/21 11:10:40;;;;;;;1.60;1.50;;;;;;;;;;5039067;28;20056;-77
2023/06/21 11:13:06;;;;;;;2.28;1.65;;;;;;;;;;5074815;28;20078;-78
2023/06/21 11:15:32;;;;;;;2.58;1.50;;;;;;;;;;5040093;28;20047;-77
2023/06/21 11:18:01;;;;;;;1.60;1.50;;;;;;;;;;5039600;28;20471;-78
2023/06/21 11:20:27;;;;;;;1.52;1.42;;;;;;;;;;5056492;28;20122;-78
2023/06/21 11:23:07;;;;;;;2.13;1.60;;;;;;;;;;5058675;28;20054;-77
2023/06/21 11:25:38;;;;;;;1.50;1.40;;;;;;;;;;5035400;28;20102;-77
2023/06/21 11:28:25;;;;;;;3.72;1.50;;;;;;;;;;5053563;28;20055;-77
2023/06/21 11:31:11;;;;;;;2.05;1.50;;;;;;;;;;5054868;28;20044;-77
2023/06/21 11:33:57;;;;;;;1.98;1.40;;;;;;;;;;5055659;28;20028;-78
2023/06/21 11:36:30;;;;;;;1.98;1.67;;;;;;;;;;5072942;28;20029;-78
2023/06/21 11:39:04;;;;;;;1.70;1.60;;;;;;;;;;5055155;28;20066;-78
2023/06/21 11:41:40;;;;;;;1.70;1.40;;;;;;;;;;5072963;28;20048;-78
2023/06/21 11:44:13;;;;;;;1.50;1.40;;;;;;;;;;5055303;28;20114;-78
2023/06/21 11:46:40;;;;;;;1.73;1.40;;;;;;;;;;5054977;28;20077;-78
2023/06/21 11:49:05;;;;;;;2.67;1.50;;;;;;;;;;5055313;28;20036;-78
2023/06/21 11:51:32;;;;;;;1.67;1.55;;;;;;;;;;5049223;28;20143;-78
2023/06/21 11:53:58;;;;;;;1.92;1.40;;;;;;;;;;5018840;28;20032;-78
2023/06/21 11:56:30;;;;;;;1.50;1.40;;;;;;;;;;5061531;28;20028;-78
2023/06/21 11:58:56;;;;;;;1.40;1.30;;;;;;;;;;5055024;28;20039;-78
2023/06/21 12:01:21;;;;;;;2.55;1.55;;;;;;;;;;5072867;28;20020;-78
2023/06/21 12:03:47;;;;;;;1.42;1.23;;;;;;;;;;5073318;28;20040;-77
2023/06/21 12:06:13;;;;;;;1.40;1.30;;;;;;;;;;5067755;28;20033;-78
2023/06/21 12:08:39;;;;;;;1.85;1.38;;;;;;;;;;5045301;28;20388;-78
2023/06/21 12:11:09;;;;;;;2.38;1.48;;;;;;;;;;5045236;28;20025;-78
2023/06/21 12:13:36;;;;;;;1.60;1.50;;;;;;;;;;5061791;28;20029;-78
2023/06/21 12:16:06;;;;;;;1.45;1.35;;;;;;;;;;5062371;28;20029;-78
2023/06/21 12:18:33;;;;;;;1.30;1.20;;;;;;;;;;5056676;28;20045;-79
2023/06/21 12:21:01;;;;;;;1.48;1.17;;;;;;;;;;5036212;28;20104;-78
2023/06/21 12:23:30;;;;;;;1.90;1.30;;;;;;;;;;5035357;28;20043;-78
2023/06/21 12:25:58;;;;;;;1.67;1.35;;;;;;;;;;5054429;28;20056;-78
2023/06/21 12:28:24;;;;;;;1.30;1.20;;;;;;;;;;5036908;28;20438;-77
2023/06/21 12:30:57;;;;;;;1.73;1.30;;;;;;;;;;5036954;28;20043;-77
2023/06/21 12:33:27;;;;;;;4.80;1.60;;;;;;;;;;5036938;28;20028;-77
2023/06/21 12:35:53;;;;;;;1.33;1.23;;;;;;;;;;5036818;28;20037;-77
2023/06/21 12:38:19;;;;;;;1.65;1.17;;;;;;;;;;5036995;28;20029;-77
2023/06/21 12:41:14;;;;;;;2.90;1.33;;;;;;;;;;5037553;28;20099;-77
2023/06/21 12:43:45;;;;;;;1.88;1.33;;;;;;;;;;5033766;28;20064;-77
2023/06/21 12:46:11;;;;;;;1.35;1.25;;;;;;;;;;5037384;28;20029;-77
2023/06/21 12:48:43;;;;;;;1.30;1.20;;;;;;;;;;5036003;28;20563;-77
2023/06/21 12:51:08;;;;;;;2.20;1.73;;;;;;;;;;5037973;28;20077;-78
2023/06/21 12:53:40;;;;;;;3.45;1.38;;;;;;;;;;5072996;28;20120;-78
2023/06/21 12:56:07;;;;;;;1.75;1.55;;;;;;;;;;5055154;28;20027;-80
2023/06/21 12:58:32;;;;;;;1.50;1.40;;;;;;;;;;5038876;28;20025;-79
2023/06/21 13:00:59;;;;;;;1.75;1.30;;;;;;;;;;5055141;28;20029;-78
2023/06/21 13:03:25;;;;;;;2.25;1.30;;;;;;;;;;5072894;28;20051;-78
2023/06/21 13:05:50;;;;;;;3.67;1.35;;;;;;;;;;5055190;28;20102;-78
2023/06/21 13:08:16;;;;;;;2.25;1.35;;;;;;;;;;5073223;28;20490;-78
2023/06/21 13:10:41;;;;;;;1.98;1.60;;;;;;;;;;5054972;28;20081;-78
2023/06/21 13:13:06;;;;;;;3.60;1.30;;;;;;;;;;5038284;28;20033;-78
2023/06/21 13:15:32;;;;;;;2.55;1.95;;;;;;;;;;5055336;28;20441;-78
2023/06/21 13:17:57;;;;;;;2.20;1.27;;;;;;;;;;5073520;28;20036;-79
2023/06/21 13:20:23;;;;;;;1.35;1.17;;;;;;;;;;5038375;28;20388;-77
2023/06/21 13:22:49;;;;;;;2.15;1.40;;;;;;;;;;5055253;28;20467;-78
2023/06/21 13:25:14;;;;;;;2.08;1.13;;;;;;;;;;5073185;28;20107;-78
2023/06/21 13:27:40;;;;;;;2.95;1.42;;;;;;;;;;5054924;28;20392;-77
2023/06/21 13:30:06;;;;;;;2.85;1.20;;;;;;;;;;5055042;28;20073;-77
2023/06/21 13:32:31;;;;;;;1.50;1.33;;;;;;;;;;5072956;28;20024;-78
2023/06/21 13:34:57;;;;;;;1.58;0.93;;;;;;;;;;5076167;28;20028;-77
2023/06/21 13:37:22;;;;;;;2.30;1.20;;;;;;;;;;5041861;28;20029;-77
2023/06/21 13:39:47;;;;;;;4.00;1.27;;;;;;;;;;5076505;28;20155;-77
2023/06/21 13:42:13;;;;;;;1.80;1.27;;;;;;;;;;5076349;28;20024;-77
2023/06/21 13:44:38;;;;;;;1.33;1.00;;;;;;;;;;5076474;28;20096;-77
2023/06/21 13:47:04;;;;;;;2.10;1.30;;;;;;;;;;5076418;28;20054;-77
2023/06/21 13:49:29;;;;;;;2.40;1.30;;;;;;;;;;5058308;28;20041;-77
2023/06/21 13:51:55;;;;;;;2.92;1.20;;;;;;;;;;5032579;28;20464;-77
2023/06/21 13:54:24;;;;;;;3.55;1.13;;;;;;;;;;5055915;28;20025;-77
2023/06/21 13:56:49;;;;;;;1.67;1.00;;;;;;;;;;5021797;28;20074;-76
2023/06/21 13:59:15;;;;;;;1.20;1.10;;;;;;;;;;5037949;28;20423;-76
2023/06/21 14:01:40;;;;;;;2.10;1.23;;;;;;;;;;5021959;28;20120;-76
2023/06/21 14:04:05;;;;;;;1.48;1.05;;;;;;;;;;5021458;28;20675;-76
2023/06/21 14:06:31;;;;;;;1.00;0.90;;;;;;;;;;5055868;28;20024;-75
2023/06/21 14:08:57;;;;;;;1.20;1.08;;;;;;;;;;5055784;28;20033;-78
2023/06/21 14:11:22;;;;;;;0.98;0.93;;;;;;;;;;5055409;28;20029;-76
2023/06/21 14:13:48;;;;;;;2.42;1.20;;;;;;;;;;5037942;28;20036;-76
2023/06/21 14:16:13;;;;;;;1.40;0.98;;;;;;;;;;5037668;28;20060;-76
2023/06/21 14:18:39;;;;;;;1.98;1.10;;;;;;;;;;5055897;28;20052;-76
2023/06/21 14:21:10;;;;;;;1.33;1.00;;;;;;;;;;5037709;28;20029;-76
2023/06/21 14:23:36;;;;;;;1.65;1.25;;;;;;;;;;5037919;28;20041;-76
2023/06/21 14:26:01;;;;;;;0.88;0.88;;;;;;;;;;5055787;28;20024;-76
2023/06/21 14:28:27;;;;;;;1.10;1.00;;;;;;;;;;5055303;28;20021;-76
2023/06/21 14:30:53;;;;;;;2.10;1.05;;;;;;;;;;5038216;28;20028;-76
2023/06/21 14:33:19;;;;;;;1.35;1.00;;;;;;;;;;5037253;28;20451;-75
2023/06/21 14:35:44;;;;;;;2.45;1.00;;;;;;;;;;5037517;28;20035;-75
2023/06/21 14:38:10;;;;;;;1.20;1.10;;;;;;;;;;5037495;28;20376;-75
2023/06/21 14:40:35;;;;;;;1.60;1.10;;;;;;;;;;5020494;28;20029;-75
2023/06/21 14:43:01;;;;;;;1.48;1.10;;;;;;;;;;5037483;28;20108;-76